sensor_id;sensor_type;location;lat;lon;timestamp;P1;durP1;ratioP1;P2;durP2;ratioP2
15990;SDS011;8100;50.994;4.538;2022-10-12T00:02:41;9.63;;;6.70;;
15990;SDS011;8100;50.994;4.538;2022-10-12T00:05:29;11.63;;;6.75;;
15990;SDS011;8100;50.994;4.538;2022-10-12T00:08:16;10.65;;;6.78;;
15990;SDS011;8100;50.994;4.538;2022-10-12T00:11:03;9.95;;;6.78;;
15990;SDS011;8100;50.994;4.538;2022-10-12T00:13:52;9.10;;;6.35;;
15990;SDS011;8100;50.994;4.538;2022-10-12T00:16:41;8.25;;;5.85;;
15990;SDS011;8100;50.994;4.538;2022-10-12T00:19:28;9.02;;;6.25;;
15990;SDS011;8100;50.994;4.538;2022-10-12T00:22:15;9.02;;;6.68;;
15990;SDS011;8100;50.994;4.538;2022-10-12T00:25:03;10.88;;;6.13;;
15990;SDS011;8100;50.994;4.538;2022-10-12T00:27:50;11.43;;;7.05;;
15990;SDS011;8100;50.994;4.538;2022-10-12T00:30:38;9.38;;;6.10;;
15990;SDS011;8100;50.994;4.538;2022-10-12T00:33:27;9.20;;;6.20;;
15990;SDS011;8100;50.994;4.538;2022-10-12T00:36:17;9.48;;;6.40;;
15990;SDS011;8100;50.994;4.538;2022-10-12T00:39:06;11.80;;;5.97;;
15990;SDS011;8100;50.994;4.538;2022-10-12T00:41:55;10.30;;;6.38;;
15990;SDS011;8100;50.994;4.538;2022-10-12T00:44:43;7.65;;;6.30;;
15990;SDS011;8100;50.994;4.538;2022-10-12T00:47:32;8.50;;;5.93;;
15990;SDS011;8100;50.994;4.538;2022-10-12T00:50:23;7.72;;;5.85;;
15990;SDS011;8100;50.994;4.538;2022-10-12T00:53:12;8.98;;;5.70;;
15990;SDS011;8100;50.994;4.538;2022-10-12T00:56:04;7.88;;;5.55;;
15990;SDS011;8100;50.994;4.538;2022-10-12T00:58:56;8.02;;;6.22;;
15990;SDS011;8100;50.994;4.538;2022-10-12T01:01:47;8.10;;;5.93;;
15990;SDS011;8100;50.994;4.538;2022-10-12T01:04:35;8.35;;;6.18;;
15990;SDS011;8100;50.994;4.538;2022-10-12T01:07:25;11.88;;;6.30;;
15990;SDS011;8100;50.994;4.538;2022-10-12T01:10:13;8.50;;;6.20;;
15990;SDS011;8100;50.994;4.538;2022-10-12T01:13:00;7.60;;;6.00;;
15990;SDS011;8100;50.994;4.538;2022-10-12T01:15:48;8.48;;;5.95;;
15990;SDS011;8100;50.994;4.538;2022-10-12T01:18:42;8.02;;;5.57;;
15990;SDS011;8100;50.994;4.538;2022-10-12T01:21:33;8.10;;;5.93;;
15990;SDS011;8100;50.994;4.538;2022-10-12T01:27:42;7.93;;;5.93;;
15990;SDS011;8100;50.994;4.538;2022-10-12T01:30:33;7.95;;;6.10;;
15990;SDS011;8100;50.994;4.538;2022-10-12T01:33:27;8.50;;;6.60;;
15990;SDS011;8100;50.994;4.538;2022-10-12T01:36:22;7.72;;;6.00;;
15990;SDS011;8100;50.994;4.538;2022-10-12T01:39:17;8.80;;;6.00;;
15990;SDS011;8100;50.994;4.538;2022-10-12T01:42:12;6.88;;;5.45;;
15990;SDS011;8100;50.994;4.538;2022-10-12T01:45:03;7.55;;;5.65;;
15990;SDS011;8100;50.994;4.538;2022-10-12T01:47:53;7.70;;;5.60;;
15990;SDS011;8100;50.994;4.538;2022-10-12T01:50:43;10.23;;;6.07;;
15990;SDS011;8100;50.994;4.538;2022-10-12T01:53:34;9.38;;;6.05;;
15990;SDS011;8100;50.994;4.538;2022-10-12T01:56:28;9.52;;;6.18;;
15990;SDS011;8100;50.994;4.538;2022-10-12T01:59:25;7.85;;;6.03;;
15990;SDS011;8100;50.994;4.538;2022-10-12T02:02:22;8.35;;;6.00;;
15990;SDS011;8100;50.994;4.538;2022-10-12T02:05:18;9.77;;;5.85;;
15990;SDS011;8100;50.994;4.538;2022-10-12T02:08:14;9.65;;;6.25;;
15990;SDS011;8100;50.994;4.538;2022-10-12T02:11:06;8.90;;;6.28;;
15990;SDS011;8100;50.994;4.538;2022-10-12T02:13:56;10.45;;;6.47;;
15990;SDS011;8100;50.994;4.538;2022-10-12T02:16:48;7.85;;;5.82;;
15990;SDS011;8100;50.994;4.538;2022-10-12T02:19:40;8.52;;;5.85;;
15990;SDS011;8100;50.994;4.538;2022-10-12T02:22:33;7.97;;;5.85;;
15990;SDS011;8100;50.994;4.538;2022-10-12T02:25:23;7.13;;;5.70;;
15990;SDS011;8100;50.994;4.538;2022-10-12T02:28:12;11.63;;;6.20;;
15990;SDS011;8100;50.994;4.538;2022-10-12T02:31:05;7.22;;;5.70;;
15990;SDS011;8100;50.994;4.538;2022-10-12T02:33:56;6.85;;;5.55;;
15990;SDS011;8100;50.994;4.538;2022-10-12T02:36:48;8.02;;;5.70;;
15990;SDS011;8100;50.994;4.538;2022-10-12T02:39:41;8.35;;;6.18;;
15990;SDS011;8100;50.994;4.538;2022-10-12T02:42:33;8.65;;;5.97;;
15990;SDS011;8100;50.994;4.538;2022-10-12T02:45:24;8.48;;;6.10;;
15990;SDS011;8100;50.994;4.538;2022-10-12T02:48:14;9.55;;;5.95;;
15990;SDS011;8100;50.994;4.538;2022-10-12T02:51:05;8.57;;;5.78;;
15990;SDS011;8100;50.994;4.538;2022-10-12T02:53:54;7.65;;;5.70;;
15990;SDS011;8100;50.994;4.538;2022-10-12T02:56:43;7.55;;;5.72;;
15990;SDS011;8100;50.994;4.538;2022-10-12T02:59:31;7.63;;;5.85;;
15990;SDS011;8100;50.994;4.538;2022-10-12T03:02:19;8.43;;;6.38;;
15990;SDS011;8100;50.994;4.538;2022-10-12T03:05:06;8.38;;;6.00;;
15990;SDS011;8100;50.994;4.538;2022-10-12T03:07:53;6.65;;;5.68;;
15990;SDS011;8100;50.994;4.538;2022-10-12T03:10:40;7.75;;;5.60;;
15990;SDS011;8100;50.994;4.538;2022-10-12T03:13:29;9.57;;;6.47;;
15990;SDS011;8100;50.994;4.538;2022-10-12T03:16:16;7.32;;;6.05;;
15990;SDS011;8100;50.994;4.538;2022-10-12T03:19:04;8.55;;;6.10;;
15990;SDS011;8100;50.994;4.538;2022-10-12T03:21:51;9.77;;;6.53;;
15990;SDS011;8100;50.994;4.538;2022-10-12T03:24:38;11.30;;;6.47;;
15990;SDS011;8100;50.994;4.538;2022-10-12T03:27:25;9.35;;;6.10;;
15990;SDS011;8100;50.994;4.538;2022-10-12T03:30:14;7.43;;;6.18;;
15990;SDS011;8100;50.994;4.538;2022-10-12T03:33:01;10.40;;;6.70;;
15990;SDS011;8100;50.994;4.538;2022-10-12T03:35:48;11.63;;;7.03;;
15990;SDS011;8100;50.994;4.538;2022-10-12T03:38:36;10.38;;;6.57;;
15990;SDS011;8100;50.994;4.538;2022-10-12T03:41:23;13.05;;;6.50;;
15990;SDS011;8100;50.994;4.538;2022-10-12T03:44:10;9.70;;;6.85;;
15990;SDS011;8100;50.994;4.538;2022-10-12T03:46:59;9.70;;;6.40;;
15990;SDS011;8100;50.994;4.538;2022-10-12T03:49:46;9.57;;;6.53;;
15990;SDS011;8100;50.994;4.538;2022-10-12T03:52:33;10.35;;;6.85;;
15990;SDS011;8100;50.994;4.538;2022-10-12T03:55:20;10.15;;;7.07;;
15990;SDS011;8100;50.994;4.538;2022-10-12T03:58:08;10.15;;;7.00;;
15990;SDS011;8100;50.994;4.538;2022-10-12T04:00:55;9.48;;;6.78;;
15990;SDS011;8100;50.994;4.538;2022-10-12T04:03:43;10.75;;;7.15;;
15990;SDS011;8100;50.994;4.538;2022-10-12T04:06:31;12.82;;;7.22;;
15990;SDS011;8100;50.994;4.538;2022-10-12T04:09:18;8.48;;;6.50;;
15990;SDS011;8100;50.994;4.538;2022-10-12T04:12:05;10.90;;;6.25;;
15990;SDS011;8100;50.994;4.538;2022-10-12T04:14:52;8.95;;;6.55;;
15990;SDS011;8100;50.994;4.538;2022-10-12T04:17:39;10.80;;;7.15;;
15990;SDS011;8100;50.994;4.538;2022-10-12T04:20:28;8.18;;;6.00;;
15990;SDS011;8100;50.994;4.538;2022-10-12T04:23:15;9.25;;;6.40;;
15990;SDS011;8100;50.994;4.538;2022-10-12T04:26:02;11.98;;;7.20;;
15990;SDS011;8100;50.994;4.538;2022-10-12T04:28:49;9.15;;;6.63;;
15990;SDS011;8100;50.994;4.538;2022-10-12T04:31:37;10.07;;;6.55;;
15990;SDS011;8100;50.994;4.538;2022-10-12T04:34:24;9.90;;;6.88;;
15990;SDS011;8100;50.994;4.538;2022-10-12T04:37:12;11.77;;;6.65;;
15990;SDS011;8100;50.994;4.538;2022-10-12T04:39:59;10.93;;;6.60;;
15990;SDS011;8100;50.994;4.538;2022-10-12T04:42:47;11.02;;;6.60;;
15990;SDS011;8100;50.994;4.538;2022-10-12T04:45:34;10.13;;;7.13;;
15990;SDS011;8100;50.994;4.538;2022-10-12T04:48:21;8.45;;;6.35;;
15990;SDS011;8100;50.994;4.538;2022-10-12T04:51:09;9.50;;;6.90;;
15990;SDS011;8100;50.994;4.538;2022-10-12T04:53:57;11.43;;;6.63;;
15990;SDS011;8100;50.994;4.538;2022-10-12T04:56:44;11.13;;;6.82;;
15990;SDS011;8100;50.994;4.538;2022-10-12T04:59:32;11.00;;;7.05;;
15990;SDS011;8100;50.994;4.538;2022-10-12T05:02:19;10.02;;;6.72;;
15990;SDS011;8100;50.994;4.538;2022-10-12T05:05:06;12.60;;;7.15;;
15990;SDS011;8100;50.994;4.538;2022-10-12T05:07:54;11.65;;;7.50;;
15990;SDS011;8100;50.994;4.538;2022-10-12T05:10:42;9.25;;;6.47;;
15990;SDS011;8100;50.994;4.538;2022-10-12T05:13:30;6.90;;;6.13;;
15990;SDS011;8100;50.994;4.538;2022-10-12T05:16:17;10.00;;;6.55;;
15990;SDS011;8100;50.994;4.538;2022-10-12T05:19:05;11.57;;;7.22;;
15990;SDS011;8100;50.994;4.538;2022-10-12T05:21:52;12.85;;;7.28;;
15990;SDS011;8100;50.994;4.538;2022-10-12T05:24:40;16.60;;;6.68;;
15990;SDS011;8100;50.994;4.538;2022-10-12T05:27:28;10.15;;;6.57;;
15990;SDS011;8100;50.994;4.538;2022-10-12T05:30:16;10.13;;;6.50;;
15990;SDS011;8100;50.994;4.538;2022-10-12T05:33:03;8.88;;;5.88;;
15990;SDS011;8100;50.994;4.538;2022-10-12T05:35:50;10.80;;;6.20;;
15990;SDS011;8100;50.994;4.538;2022-10-12T05:38:37;10.15;;;6.25;;
15990;SDS011;8100;50.994;4.538;2022-10-12T05:41:25;13.65;;;6.10;;
15990;SDS011;8100;50.994;4.538;2022-10-12T05:44:13;9.55;;;5.93;;
15990;SDS011;8100;50.994;4.538;2022-10-12T05:47:01;11.60;;;6.10;;
15990;SDS011;8100;50.994;4.538;2022-10-12T05:49:48;9.20;;;6.30;;
15990;SDS011;8100;50.994;4.538;2022-10-12T05:52:35;7.30;;;5.63;;
15990;SDS011;8100;50.994;4.538;2022-10-12T05:55:22;11.50;;;6.50;;
15990;SDS011;8100;50.994;4.538;2022-10-12T05:58:09;11.77;;;6.45;;
15990;SDS011;8100;50.994;4.538;2022-10-12T06:01:04;10.63;;;6.03;;
15990;SDS011;8100;50.994;4.538;2022-10-12T06:03:52;11.00;;;6.20;;
15990;SDS011;8100;50.994;4.538;2022-10-12T06:06:40;8.68;;;5.47;;
15990;SDS011;8100;50.994;4.538;2022-10-12T06:09:27;7.30;;;5.25;;
15990;SDS011;8100;50.994;4.538;2022-10-12T06:12:14;7.50;;;4.90;;
15990;SDS011;8100;50.994;4.538;2022-10-12T06:15:01;7.55;;;5.57;;
15990;SDS011;8100;50.994;4.538;2022-10-12T06:17:50;8.52;;;5.38;;
15990;SDS011;8100;50.994;4.538;2022-10-12T06:20:37;8.60;;;5.63;;
15990;SDS011;8100;50.994;4.538;2022-10-12T06:23:25;9.70;;;5.82;;
15990;SDS011;8100;50.994;4.538;2022-10-12T06:26:13;9.80;;;5.65;;
15990;SDS011;8100;50.994;4.538;2022-10-12T06:29:01;9.88;;;5.97;;
15990;SDS011;8100;50.994;4.538;2022-10-12T06:31:48;10.48;;;6.15;;
15990;SDS011;8100;50.994;4.538;2022-10-12T06:34:38;9.18;;;6.07;;
15990;SDS011;8100;50.994;4.538;2022-10-12T06:37:25;12.55;;;5.75;;
15990;SDS011;8100;50.994;4.538;2022-10-12T06:40:14;11.20;;;6.03;;
15990;SDS011;8100;50.994;4.538;2022-10-12T06:43:01;10.57;;;5.95;;
15990;SDS011;8100;50.994;4.538;2022-10-12T06:45:49;9.85;;;5.97;;
15990;SDS011;8100;50.994;4.538;2022-10-12T06:48:36;9.48;;;5.72;;
15990;SDS011;8100;50.994;4.538;2022-10-12T06:51:24;9.75;;;5.90;;
15990;SDS011;8100;50.994;4.538;2022-10-12T06:54:12;12.32;;;6.00;;
15990;SDS011;8100;50.994;4.538;2022-10-12T06:56:59;9.68;;;5.55;;
15990;SDS011;8100;50.994;4.538;2022-10-12T06:59:46;8.43;;;5.88;;
15990;SDS011;8100;50.994;4.538;2022-10-12T07:02:33;9.23;;;5.63;;
15990;SDS011;8100;50.994;4.538;2022-10-12T07:05:21;10.18;;;5.95;;
15990;SDS011;8100;50.994;4.538;2022-10-12T07:08:10;8.68;;;5.95;;
15990;SDS011;8100;50.994;4.538;2022-10-12T07:10:58;10.23;;;6.32;;
15990;SDS011;8100;50.994;4.538;2022-10-12T07:13:46;9.90;;;5.97;;
15990;SDS011;8100;50.994;4.538;2022-10-12T07:16:33;11.07;;;5.00;;
15990;SDS011;8100;50.994;4.538;2022-10-12T07:19:21;7.80;;;4.82;;
15990;SDS011;8100;50.994;4.538;2022-10-12T07:22:08;9.32;;;4.95;;
15990;SDS011;8100;50.994;4.538;2022-10-12T07:24:56;8.27;;;4.55;;
15990;SDS011;8100;50.994;4.538;2022-10-12T07:27:45;7.72;;;4.18;;
15990;SDS011;8100;50.994;4.538;2022-10-12T07:30:34;7.00;;;4.20;;
15990;SDS011;8100;50.994;4.538;2022-10-12T07:33:22;8.07;;;3.95;;
15990;SDS011;8100;50.994;4.538;2022-10-12T07:36:09;8.93;;;3.90;;
15990;SDS011;8100;50.994;4.538;2022-10-12T07:38:56;9.85;;;3.75;;
15990;SDS011;8100;50.994;4.538;2022-10-12T07:41:45;6.32;;;3.55;;
15990;SDS011;8100;50.994;4.538;2022-10-12T07:44:32;5.57;;;3.40;;
15990;SDS011;8100;50.994;4.538;2022-10-12T07:47:20;7.95;;;3.53;;
15990;SDS011;8100;50.994;4.538;2022-10-12T07:50:07;8.10;;;3.85;;
15990;SDS011;8100;50.994;4.538;2022-10-12T07:52:55;8.88;;;3.63;;
15990;SDS011;8100;50.994;4.538;2022-10-12T07:55:42;5.85;;;3.60;;
15990;SDS011;8100;50.994;4.538;2022-10-12T07:58:31;7.22;;;3.60;;
15990;SDS011;8100;50.994;4.538;2022-10-12T08:01:19;8.52;;;3.58;;
15990;SDS011;8100;50.994;4.538;2022-10-12T08:04:07;6.28;;;3.33;;
15990;SDS011;8100;50.994;4.538;2022-10-12T08:06:55;6.93;;;3.83;;
15990;SDS011;8100;50.994;4.538;2022-10-12T08:09:44;7.47;;;3.78;;
15990;SDS011;8100;50.994;4.538;2022-10-12T08:12:33;7.63;;;3.83;;
15990;SDS011;8100;50.994;4.538;2022-10-12T08:15:21;9.45;;;4.00;;
15990;SDS011;8100;50.994;4.538;2022-10-12T08:18:08;7.72;;;4.53;;
15990;SDS011;8100;50.994;4.538;2022-10-12T08:20:55;7.32;;;3.28;;
15990;SDS011;8100;50.994;4.538;2022-10-12T08:23:43;9.52;;;4.03;;
15990;SDS011;8100;50.994;4.538;2022-10-12T08:26:30;7.05;;;4.00;;
15990;SDS011;8100;50.994;4.538;2022-10-12T08:29:18;7.07;;;4.13;;
15990;SDS011;8100;50.994;4.538;2022-10-12T08:32:06;6.20;;;3.70;;
15990;SDS011;8100;50.994;4.538;2022-10-12T08:34:53;6.63;;;3.83;;
15990;SDS011;8100;50.994;4.538;2022-10-12T08:37:41;8.98;;;3.92;;
15990;SDS011;8100;50.994;4.538;2022-10-12T08:40:29;9.48;;;3.95;;
15990;SDS011;8100;50.994;4.538;2022-10-12T08:43:23;7.85;;;4.38;;
15990;SDS011;8100;50.994;4.538;2022-10-12T08:46:19;6.93;;;3.53;;
15990;SDS011;8100;50.994;4.538;2022-10-12T08:49:11;8.00;;;4.25;;
15990;SDS011;8100;50.994;4.538;2022-10-12T08:52:03;8.70;;;4.15;;
15990;SDS011;8100;50.994;4.538;2022-10-12T08:55:00;6.50;;;3.80;;
15990;SDS011;8100;50.994;4.538;2022-10-12T08:57:52;8.63;;;4.15;;
15990;SDS011;8100;50.994;4.538;2022-10-12T09:00:39;7.95;;;4.50;;
15990;SDS011;8100;50.994;4.538;2022-10-12T09:03:39;5.90;;;3.78;;
15990;SDS011;8100;50.994;4.538;2022-10-12T09:06:38;6.32;;;3.85;;
15990;SDS011;8100;50.994;4.538;2022-10-12T09:09:33;7.78;;;4.45;;
15990;SDS011;8100;50.994;4.538;2022-10-12T09:12:36;11.35;;;5.28;;
15990;SDS011;8100;50.994;4.538;2022-10-12T09:15:31;8.60;;;4.40;;
15990;SDS011;8100;50.994;4.538;2022-10-12T09:18:30;7.97;;;4.22;;
15990;SDS011;8100;50.994;4.538;2022-10-12T09:21:23;6.03;;;4.10;;
15990;SDS011;8100;50.994;4.538;2022-10-12T09:24:15;10.80;;;4.80;;
15990;SDS011;8100;50.994;4.538;2022-10-12T09:27:10;7.75;;;4.68;;
15990;SDS011;8100;50.994;4.538;2022-10-12T09:29:59;8.68;;;4.47;;
15990;SDS011;8100;50.994;4.538;2022-10-12T09:32:56;8.27;;;4.40;;
15990;SDS011;8100;50.994;4.538;2022-10-12T09:36:02;9.43;;;4.43;;
15990;SDS011;8100;50.994;4.538;2022-10-12T09:38:49;9.43;;;4.60;;
15990;SDS011;8100;50.994;4.538;2022-10-12T09:41:40;11.68;;;4.60;;
15990;SDS011;8100;50.994;4.538;2022-10-12T09:44:30;8.10;;;4.20;;
15990;SDS011;8100;50.994;4.538;2022-10-12T09:47:24;9.57;;;4.25;;
15990;SDS011;8100;50.994;4.538;2022-10-12T09:50:12;9.77;;;4.53;;
15990;SDS011;8100;50.994;4.538;2022-10-12T09:53:23;10.25;;;4.45;;
15990;SDS011;8100;50.994;4.538;2022-10-12T09:56:21;10.07;;;4.63;;
15990;SDS011;8100;50.994;4.538;2022-10-12T09:59:19;13.88;;;5.28;;
15990;SDS011;8100;50.994;4.538;2022-10-12T10:02:13;14.85;;;5.47;;
15990;SDS011;8100;50.994;4.538;2022-10-12T10:05:13;14.90;;;5.55;;
15990;SDS011;8100;50.994;4.538;2022-10-12T10:08:16;15.57;;;5.43;;
15990;SDS011;8100;50.994;4.538;2022-10-12T10:11:05;11.52;;;5.13;;
15990;SDS011;8100;50.994;4.538;2022-10-12T10:14:01;13.25;;;5.50;;
15990;SDS011;8100;50.994;4.538;2022-10-12T10:16:50;12.43;;;5.05;;
15990;SDS011;8100;50.994;4.538;2022-10-12T10:19:39;12.68;;;5.05;;
15990;SDS011;8100;50.994;4.538;2022-10-12T10:22:27;14.02;;;5.57;;
15990;SDS011;8100;50.994;4.538;2022-10-12T10:25:18;11.02;;;5.50;;
15990;SDS011;8100;50.994;4.538;2022-10-12T10:28:20;12.52;;;5.50;;
15990;SDS011;8100;50.994;4.538;2022-10-12T10:31:15;16.15;;;6.00;;
15990;SDS011;8100;50.994;4.538;2022-10-12T10:34:11;12.13;;;5.47;;
15990;SDS011;8100;50.994;4.538;2022-10-12T10:37:05;14.98;;;6.22;;
15990;SDS011;8100;50.994;4.538;2022-10-12T10:39:53;15.55;;;5.90;;
15990;SDS011;8100;50.994;4.538;2022-10-12T10:42:42;19.15;;;5.60;;
15990;SDS011;8100;50.994;4.538;2022-10-12T10:45:37;11.30;;;5.40;;
15990;SDS011;8100;50.994;4.538;2022-10-12T10:48:29;13.88;;;6.18;;
15990;SDS011;8100;50.994;4.538;2022-10-12T10:51:38;14.68;;;5.60;;
15990;SDS011;8100;50.994;4.538;2022-10-12T10:54:29;11.63;;;5.32;;
15990;SDS011;8100;50.994;4.538;2022-10-12T10:57:19;12.82;;;5.30;;
15990;SDS011;8100;50.994;4.538;2022-10-12T11:00:10;13.35;;;5.78;;
15990;SDS011;8100;50.994;4.538;2022-10-12T11:03:02;10.90;;;5.22;;
15990;SDS011;8100;50.994;4.538;2022-10-12T11:05:53;15.02;;;4.95;;
15990;SDS011;8100;50.994;4.538;2022-10-12T11:08:44;12.98;;;4.72;;
15990;SDS011;8100;50.994;4.538;2022-10-12T11:11:34;8.90;;;3.92;;
15990;SDS011;8100;50.994;4.538;2022-10-12T11:14:24;11.20;;;4.90;;
15990;SDS011;8100;50.994;4.538;2022-10-12T11:17:16;12.52;;;4.97;;
15990;SDS011;8100;50.994;4.538;2022-10-12T11:20:17;11.32;;;4.45;;
15990;SDS011;8100;50.994;4.538;2022-10-12T11:23:16;11.77;;;4.72;;
15990;SDS011;8100;50.994;4.538;2022-10-12T11:26:12;9.52;;;4.07;;
15990;SDS011;8100;50.994;4.538;2022-10-12T11:29:07;12.60;;;4.28;;
15990;SDS011;8100;50.994;4.538;2022-10-12T11:31:59;11.65;;;4.18;;
15990;SDS011;8100;50.994;4.538;2022-10-12T11:34:50;13.13;;;3.88;;
15990;SDS011;8100;50.994;4.538;2022-10-12T11:37:41;12.13;;;3.63;;
15990;SDS011;8100;50.994;4.538;2022-10-12T11:40:31;8.88;;;4.05;;
15990;SDS011;8100;50.994;4.538;2022-10-12T11:43:26;12.25;;;3.80;;
15990;SDS011;8100;50.994;4.538;2022-10-12T11:46:17;11.90;;;3.80;;
15990;SDS011;8100;50.994;4.538;2022-10-12T11:49:07;13.20;;;3.67;;
15990;SDS011;8100;50.994;4.538;2022-10-12T11:52:04;9.27;;;3.67;;
15990;SDS011;8100;50.994;4.538;2022-10-12T11:54:56;8.75;;;3.50;;
15990;SDS011;8100;50.994;4.538;2022-10-12T11:57:49;12.02;;;3.70;;
15990;SDS011;8100;50.994;4.538;2022-10-12T12:00:41;10.27;;;3.95;;
15990;SDS011;8100;50.994;4.538;2022-10-12T12:03:55;9.30;;;3.63;;
15990;SDS011;8100;50.994;4.538;2022-10-12T12:06:54;5.72;;;2.60;;
15990;SDS011;8100;50.994;4.538;2022-10-12T12:09:45;9.50;;;3.03;;
15990;SDS011;8100;50.994;4.538;2022-10-12T12:12:33;13.55;;;3.38;;
15990;SDS011;8100;50.994;4.538;2022-10-12T12:15:20;12.13;;;3.30;;
15990;SDS011;8100;50.994;4.538;2022-10-12T12:18:11;9.20;;;2.92;;
15990;SDS011;8100;50.994;4.538;2022-10-12T12:21:00;7.40;;;2.70;;
15990;SDS011;8100;50.994;4.538;2022-10-12T12:23:50;12.15;;;2.97;;
15990;SDS011;8100;50.994;4.538;2022-10-12T12:26:39;6.43;;;2.58;;
15990;SDS011;8100;50.994;4.538;2022-10-12T12:29:33;10.10;;;2.92;;
15990;SDS011;8100;50.994;4.538;2022-10-12T12:32:20;10.02;;;2.80;;
15990;SDS011;8100;50.994;4.538;2022-10-12T12:35:16;14.55;;;2.72;;
15990;SDS011;8100;50.994;4.538;2022-10-12T12:38:13;9.43;;;2.80;;
15990;SDS011;8100;50.994;4.538;2022-10-12T12:41:08;9.77;;;3.15;;
15990;SDS011;8100;50.994;4.538;2022-10-12T12:43:58;9.52;;;2.83;;
15990;SDS011;8100;50.994;4.538;2022-10-12T12:53:17;9.30;;;3.45;;
15990;SDS011;8100;50.994;4.538;2022-10-12T12:56:06;11.98;;;3.08;;
15990;SDS011;8100;50.994;4.538;2022-10-12T12:59:20;10.27;;;3.30;;
15990;SDS011;8100;50.994;4.538;2022-10-12T13:02:35;11.50;;;2.92;;
15990;SDS011;8100;50.994;4.538;2022-10-12T13:09:33;8.23;;;2.72;;
15990;SDS011;8100;50.994;4.538;2022-10-12T13:12:35;6.50;;;2.55;;
15990;SDS011;8100;50.994;4.538;2022-10-12T13:15:40;7.55;;;2.50;;
15990;SDS011;8100;50.994;4.538;2022-10-12T13:18:41;6.22;;;2.67;;
15990;SDS011;8100;50.994;4.538;2022-10-12T13:21:36;11.80;;;2.65;;
15990;SDS011;8100;50.994;4.538;2022-10-12T13:24:27;6.20;;;2.20;;
15990;SDS011;8100;50.994;4.538;2022-10-12T13:27:20;9.02;;;2.42;;
15990;SDS011;8100;50.994;4.538;2022-10-12T13:30:12;8.98;;;2.90;;
15990;SDS011;8100;50.994;4.538;2022-10-12T13:33:14;6.65;;;2.65;;
15990;SDS011;8100;50.994;4.538;2022-10-12T13:36:07;8.35;;;2.40;;
15990;SDS011;8100;50.994;4.538;2022-10-12T13:39:06;6.78;;;2.60;;
15990;SDS011;8100;50.994;4.538;2022-10-12T13:41:59;8.52;;;2.80;;
15990;SDS011;8100;50.994;4.538;2022-10-12T13:44:48;6.53;;;2.50;;
15990;SDS011;8100;50.994;4.538;2022-10-12T13:47:40;9.55;;;2.20;;
15990;SDS011;8100;50.994;4.538;2022-10-12T13:50:28;6.22;;;2.80;;
15990;SDS011;8100;50.994;4.538;2022-10-12T13:53:17;4.47;;;2.10;;
15990;SDS011;8100;50.994;4.538;2022-10-12T13:56:07;7.25;;;2.50;;
15990;SDS011;8100;50.994;4.538;2022-10-12T13:58:57;7.72;;;2.60;;
15990;SDS011;8100;50.994;4.538;2022-10-12T14:01:48;8.38;;;2.20;;
15990;SDS011;8100;50.994;4.538;2022-10-12T14:04:37;7.00;;;2.50;;
15990;SDS011;8100;50.994;4.538;2022-10-12T14:07:28;7.70;;;2.50;;
15990;SDS011;8100;50.994;4.538;2022-10-12T14:10:19;7.65;;;2.35;;
15990;SDS011;8100;50.994;4.538;2022-10-12T14:13:10;5.97;;;2.22;;
15990;SDS011;8100;50.994;4.538;2022-10-12T14:16:00;5.72;;;2.03;;
15990;SDS011;8100;50.994;4.538;2022-10-12T14:18:51;7.13;;;2.58;;
15990;SDS011;8100;50.994;4.538;2022-10-12T14:21:38;7.30;;;2.42;;
15990;SDS011;8100;50.994;4.538;2022-10-12T14:24:32;5.43;;;2.15;;
15990;SDS011;8100;50.994;4.538;2022-10-12T14:27:22;6.97;;;2.22;;
15990;SDS011;8100;50.994;4.538;2022-10-12T14:30:18;8.27;;;2.83;;
15990;SDS011;8100;50.994;4.538;2022-10-12T14:33:08;6.45;;;2.28;;
15990;SDS011;8100;50.994;4.538;2022-10-12T14:36:11;8.25;;;2.15;;
15990;SDS011;8100;50.994;4.538;2022-10-12T14:39:08;9.15;;;2.47;;
15990;SDS011;8100;50.994;4.538;2022-10-12T14:41:59;7.80;;;2.40;;
15990;SDS011;8100;50.994;4.538;2022-10-12T14:44:49;8.23;;;2.55;;
15990;SDS011;8100;50.994;4.538;2022-10-12T14:47:37;6.70;;;2.65;;
15990;SDS011;8100;50.994;4.538;2022-10-12T14:50:28;8.38;;;2.90;;
15990;SDS011;8100;50.994;4.538;2022-10-12T14:53:18;15.82;;;2.97;;
15990;SDS011;8100;50.994;4.538;2022-10-12T14:56:07;8.93;;;2.33;;
15990;SDS011;8100;50.994;4.538;2022-10-12T14:58:55;7.32;;;2.67;;
15990;SDS011;8100;50.994;4.538;2022-10-12T15:01:42;7.57;;;2.60;;
15990;SDS011;8100;50.994;4.538;2022-10-12T15:04:30;6.32;;;2.00;;
15990;SDS011;8100;50.994;4.538;2022-10-12T15:07:18;6.15;;;2.33;;
15990;SDS011;8100;50.994;4.538;2022-10-12T15:10:08;8.20;;;2.22;;
15990;SDS011;8100;50.994;4.538;2022-10-12T15:12:55;4.15;;;1.80;;
15990;SDS011;8100;50.994;4.538;2022-10-12T15:15:43;7.78;;;2.22;;
15990;SDS011;8100;50.994;4.538;2022-10-12T15:18:32;7.65;;;2.30;;
15990;SDS011;8100;50.994;4.538;2022-10-12T15:21:19;7.47;;;2.17;;
15990;SDS011;8100;50.994;4.538;2022-10-12T15:24:09;4.78;;;2.15;;
15990;SDS011;8100;50.994;4.538;2022-10-12T15:27:02;7.15;;;2.05;;
15990;SDS011;8100;50.994;4.538;2022-10-12T15:29:49;8.40;;;1.83;;
15990;SDS011;8100;50.994;4.538;2022-10-12T15:32:36;7.00;;;1.80;;
15990;SDS011;8100;50.994;4.538;2022-10-12T15:35:24;5.07;;;1.92;;
15990;SDS011;8100;50.994;4.538;2022-10-12T15:38:13;7.60;;;2.08;;
15990;SDS011;8100;50.994;4.538;2022-10-12T15:41:01;9.73;;;1.90;;
15990;SDS011;8100;50.994;4.538;2022-10-12T15:43:50;6.40;;;1.90;;
15990;SDS011;8100;50.994;4.538;2022-10-12T15:46:37;3.75;;;2.08;;
15990;SDS011;8100;50.994;4.538;2022-10-12T15:49:25;5.28;;;2.22;;
15990;SDS011;8100;50.994;4.538;2022-10-12T15:52:12;6.60;;;2.35;;
15990;SDS011;8100;50.994;4.538;2022-10-12T15:54:59;8.40;;;2.47;;
15990;SDS011;8100;50.994;4.538;2022-10-12T15:57:47;8.80;;;3.35;;
15990;SDS011;8100;50.994;4.538;2022-10-12T16:00:35;8.05;;;3.65;;
15990;SDS011;8100;50.994;4.538;2022-10-12T16:03:23;8.55;;;2.10;;
15990;SDS011;8100;50.994;4.538;2022-10-12T16:06:15;4.68;;;2.17;;
15990;SDS011;8100;50.994;4.538;2022-10-12T16:09:03;5.43;;;1.98;;
15990;SDS011;8100;50.994;4.538;2022-10-12T16:11:50;6.53;;;2.30;;
15990;SDS011;8100;50.994;4.538;2022-10-12T16:14:37;7.75;;;2.38;;
15990;SDS011;8100;50.994;4.538;2022-10-12T16:17:26;6.55;;;2.47;;
15990;SDS011;8100;50.994;4.538;2022-10-12T16:20:13;7.50;;;2.72;;
15990;SDS011;8100;50.994;4.538;2022-10-12T16:23:00;19.25;;;6.07;;
15990;SDS011;8100;50.994;4.538;2022-10-12T16:25:48;10.63;;;3.42;;
15990;SDS011;8100;50.994;4.538;2022-10-12T16:28:35;7.85;;;3.30;;
15990;SDS011;8100;50.994;4.538;2022-10-12T16:31:22;9.15;;;2.88;;
15990;SDS011;8100;50.994;4.538;2022-10-12T16:34:11;8.23;;;2.60;;
15990;SDS011;8100;50.994;4.538;2022-10-12T16:36:58;7.78;;;2.80;;
15990;SDS011;8100;50.994;4.538;2022-10-12T16:39:45;9.30;;;2.45;;
15990;SDS011;8100;50.994;4.538;2022-10-12T16:42:33;10.07;;;2.60;;
15990;SDS011;8100;50.994;4.538;2022-10-12T16:45:20;16.85;;;5.03;;
15990;SDS011;8100;50.994;4.538;2022-10-12T16:48:08;54.30;;;20.70;;
15990;SDS011;8100;50.994;4.538;2022-10-12T16:50:57;79.57;;;26.92;;
15990;SDS011;8100;50.994;4.538;2022-10-12T16:53:44;46.17;;;17.13;;
15990;SDS011;8100;50.994;4.538;2022-10-12T16:56:31;24.35;;;8.23;;
15990;SDS011;8100;50.994;4.538;2022-10-12T16:59:19;15.35;;;3.92;;
15990;SDS011;8100;50.994;4.538;2022-10-12T17:02:06;22.02;;;7.85;;
15990;SDS011;8100;50.994;4.538;2022-10-12T17:04:53;14.43;;;5.97;;
15990;SDS011;8100;50.994;4.538;2022-10-12T17:07:42;15.50;;;5.50;;
15990;SDS011;8100;50.994;4.538;2022-10-12T17:10:29;8.35;;;3.92;;
15990;SDS011;8100;50.994;4.538;2022-10-12T17:13:16;7.97;;;3.88;;
15990;SDS011;8100;50.994;4.538;2022-10-12T17:16:03;8.75;;;4.07;;
15990;SDS011;8100;50.994;4.538;2022-10-12T17:19:13;8.60;;;4.05;;
15990;SDS011;8100;50.994;4.538;2022-10-12T17:22:01;8.95;;;4.00;;
15990;SDS011;8100;50.994;4.538;2022-10-12T17:24:52;13.80;;;3.88;;
15990;SDS011;8100;50.994;4.538;2022-10-12T17:27:39;10.65;;;4.03;;
15990;SDS011;8100;50.994;4.538;2022-10-12T17:30:26;10.13;;;6.35;;